Damascus, VA

09:09 EDT je la 26an de aprilo 2018 (GMT -0400)
Taylor Valley | | Change Station

Elev 2395 ft 36.62 °N, 81.72 °W | Updated 1 second ago

Sennuba
Sennuba
51.5 °F
Sentas kiel 51.5 °F
N
2.0
Vento Varianta Vento from Okcidento

hodiaŭ
High -- | Low -- °F
--% Ebla precip.
hieraŭ
High -- | Low -- °F
Precip. -- co
Aerpremo 29.92 co
Vidodistanco 10.0 mejloj
Nuboj Sennuba
Rosopunkto 46 °F
Humido 83%
Pluvokvanto 0.00 co
Neĝprofundo Not available.
6:39 AM 8:11 PM
Kreskanta Lunĝibo, 87% visible
METAR KVJI 261255Z AUTO 07004KT 10SM CLR 12/09 A2992 RMK AO2 T01200089
Aerpremo 29.92 co
Vidodistanco 10.0 mejloj
Nuboj Sennuba
Rosopunkto 46 °F
Humido 83%
Pluvokvanto 0.00 co
Neĝprofundo Not available.
6:39 AM 8:11 PM
Kreskanta Lunĝibo, 87% visible
METAR KVJI 261255Z AUTO 07004KT 10SM CLR 12/09 A2992 RMK AO2 T01200089

Get Severe Weather Alerts

Thanks for signing up!

Be on the lookout for a verification email in your inbox.

You'll start receiving the daily forecast at 6 AM.

×

10-Day Weather Forecast

Almanac

Astronomio

Apr. 26, 2018 Leviĝo Subiro
Aktuala tempo
Civila krepusko
Naŭtika krepusko
Astronomia krepusko
Luno
Daŭro de videbla lumo
Daŭro de tago
Tomorrow will be .
, % of the Moon is Illuminated

Hodiaŭaj ekstremaĵoj

State Highs State Lows

Community

WunderPhotos

Category 6

Welcome to Category 6. This is the collective home for Weather Underground's featured writeups by Dr. Jeff Masters (right), Bob Henson (left), Chris Burt, and other regular contributors.

Nearby

Aerkvalito

  Aerkvalito Aerkvalita indico Poluanto
Not available.

Neĝa profundeco

Station Depth Alteco

Earthquake Activity

Urbo Distance Mag. Time & Date
Minimum magnitude displayed is 2.5.

Coastal Water Temperatures

Loko Temperaturo

Stations

Najbaraj veter-stacioj

Loko de stacio Temp Venta
kvazaŭtemperaturo
Rosopunkto Humido Vento Precip. Elev Ĝisdatigita je Tipo
                   

Watches & Warnings

There are currently no watches in effect.